sensor_id;sensor_type;location;lat;lon;timestamp;temperature;humidity
7163;DHT22;3623;47.098;15.446;2023-04-23T00:02:18;10.90;99.90
7163;DHT22;3623;47.098;15.446;2023-04-23T00:04:50;10.80;99.90
7163;DHT22;3623;47.098;15.446;2023-04-23T00:07:19;10.80;99.90
7163;DHT22;3623;47.098;15.446;2023-04-23T00:09:46;10.70;99.90
7163;DHT22;3623;47.098;15.446;2023-04-23T00:12:16;10.70;99.90
7163;DHT22;3623;47.098;15.446;2023-04-23T00:14:44;10.60;99.90
7163;DHT22;3623;47.098;15.446;2023-04-23T00:17:11;10.50;99.90
7163;DHT22;3623;47.098;15.446;2023-04-23T00:19:38;10.50;99.90
7163;DHT22;3623;47.098;15.446;2023-04-23T00:22:05;10.40;99.90
7163;DHT22;3623;47.098;15.446;2023-04-23T00:24:32;10.30;99.90
7163;DHT22;3623;47.098;15.446;2023-04-23T00:27:01;10.30;99.90
7163;DHT22;3623;47.098;15.446;2023-04-23T00:29:30;10.20;99.90
7163;DHT22;3623;47.098;15.446;2023-04-23T00:31:57;10.20;99.90
7163;DHT22;3623;47.098;15.446;2023-04-23T00:34:24;10.10;99.90
7163;DHT22;3623;47.098;15.446;2023-04-23T00:36:51;10.10;99.90
7163;DHT22;3623;47.098;15.446;2023-04-23T00:39:18;10.00;99.90
7163;DHT22;3623;47.098;15.446;2023-04-23T00:41:45;10.00;99.90
7163;DHT22;3623;47.098;15.446;2023-04-23T00:44:13;9.90;99.90
7163;DHT22;3623;47.098;15.446;2023-04-23T00:46:41;9.90;99.90
7163;DHT22;3623;47.098;15.446;2023-04-23T00:49:08;9.90;99.90
7163;DHT22;3623;47.098;15.446;2023-04-23T00:51:35;9.90;99.90
7163;DHT22;3623;47.098;15.446;2023-04-23T00:54:03;9.90;99.90
7163;DHT22;3623;47.098;15.446;2023-04-23T00:56:30;9.90;99.90
7163;DHT22;3623;47.098;15.446;2023-04-23T00:58:57;9.90;99.90
7163;DHT22;3623;47.098;15.446;2023-04-23T01:01:24;9.90;99.90
7163;DHT22;3623;47.098;15.446;2023-04-23T01:03:53;9.90;99.90
7163;DHT22;3623;47.098;15.446;2023-04-23T01:06:21;9.90;99.90
7163;DHT22;3623;47.098;15.446;2023-04-23T01:08:49;9.90;99.90
7163;DHT22;3623;47.098;15.446;2023-04-23T01:11:17;9.90;99.90
7163;DHT22;3623;47.098;15.446;2023-04-23T01:13:44;9.90;99.90
7163;DHT22;3623;47.098;15.446;2023-04-23T01:16:11;9.80;99.90
7163;DHT22;3623;47.098;15.446;2023-04-23T01:18:38;9.80;99.90
7163;DHT22;3623;47.098;15.446;2023-04-23T01:21:08;9.70;99.90
7163;DHT22;3623;47.098;15.446;2023-04-23T01:23:37;9.70;99.90
7163;DHT22;3623;47.098;15.446;2023-04-23T01:26:06;9.70;99.90
7163;DHT22;3623;47.098;15.446;2023-04-23T01:28:35;9.70;99.90
7163;DHT22;3623;47.098;15.446;2023-04-23T01:31:03;9.60;99.90
7163;DHT22;3623;47.098;15.446;2023-04-23T01:33:30;9.60;99.90
7163;DHT22;3623;47.098;15.446;2023-04-23T01:35:57;9.50;99.90
7163;DHT22;3623;47.098;15.446;2023-04-23T01:38:27;9.50;99.90
7163;DHT22;3623;47.098;15.446;2023-04-23T01:40:58;9.40;99.90
7163;DHT22;3623;47.098;15.446;2023-04-23T01:43:25;9.40;99.90
7163;DHT22;3623;47.098;15.446;2023-04-23T01:45:52;9.40;99.90
7163;DHT22;3623;47.098;15.446;2023-04-23T01:48:19;9.30;99.90
7163;DHT22;3623;47.098;15.446;2023-04-23T01:50:47;9.30;99.90
7163;DHT22;3623;47.098;15.446;2023-04-23T01:53:15;9.30;99.90
7163;DHT22;3623;47.098;15.446;2023-04-23T01:55:42;9.30;99.90
7163;DHT22;3623;47.098;15.446;2023-04-23T01:58:12;9.30;99.90
7163;DHT22;3623;47.098;15.446;2023-04-23T02:00:40;9.30;99.90
7163;DHT22;3623;47.098;15.446;2023-04-23T02:03:07;9.30;99.90
7163;DHT22;3623;47.098;15.446;2023-04-23T02:05:35;9.20;99.90
7163;DHT22;3623;47.098;15.446;2023-04-23T02:08:02;9.20;99.90
7163;DHT22;3623;47.098;15.446;2023-04-23T02:10:29;9.20;99.90
7163;DHT22;3623;47.098;15.446;2023-04-23T02:12:57;9.20;99.90
7163;DHT22;3623;47.098;15.446;2023-04-23T02:15:25;9.20;99.90
7163;DHT22;3623;47.098;15.446;2023-04-23T02:17:52;9.10;99.90
7163;DHT22;3623;47.098;15.446;2023-04-23T02:20:19;9.10;99.90
7163;DHT22;3623;47.098;15.446;2023-04-23T02:22:48;9.10;99.90
7163;DHT22;3623;47.098;15.446;2023-04-23T02:25:15;9.10;99.90
7163;DHT22;3623;47.098;15.446;2023-04-23T02:27:43;9.10;99.90
7163;DHT22;3623;47.098;15.446;2023-04-23T02:30:11;9.10;99.90
7163;DHT22;3623;47.098;15.446;2023-04-23T02:32:39;9.00;99.90
7163;DHT22;3623;47.098;15.446;2023-04-23T02:35:08;9.00;99.90
7163;DHT22;3623;47.098;15.446;2023-04-23T02:37:35;8.90;99.90
7163;DHT22;3623;47.098;15.446;2023-04-23T02:40:03;8.90;99.90
7163;DHT22;3623;47.098;15.446;2023-04-23T02:42:31;8.90;99.90
7163;DHT22;3623;47.098;15.446;2023-04-23T02:44:58;8.80;99.90
7163;DHT22;3623;47.098;15.446;2023-04-23T02:47:25;8.80;99.90
7163;DHT22;3623;47.098;15.446;2023-04-23T02:49:54;8.80;99.90
7163;DHT22;3623;47.098;15.446;2023-04-23T02:52:21;8.80;99.90
7163;DHT22;3623;47.098;15.446;2023-04-23T02:54:48;8.90;99.90
7163;DHT22;3623;47.098;15.446;2023-04-23T02:57:15;8.90;99.90
7163;DHT22;3623;47.098;15.446;2023-04-23T02:59:42;8.90;99.90
7163;DHT22;3623;47.098;15.446;2023-04-23T03:02:09;8.90;99.90
7163;DHT22;3623;47.098;15.446;2023-04-23T03:04:36;8.60;99.90
7163;DHT22;3623;47.098;15.446;2023-04-23T03:07:05;8.90;99.90
7163;DHT22;3623;47.098;15.446;2023-04-23T03:09:32;8.90;99.90
7163;DHT22;3623;47.098;15.446;2023-04-23T03:12:00;8.90;99.90
7163;DHT22;3623;47.098;15.446;2023-04-23T03:14:27;8.90;99.90
7163;DHT22;3623;47.098;15.446;2023-04-23T03:16:54;8.90;99.90
7163;DHT22;3623;47.098;15.446;2023-04-23T03:19:21;8.90;99.90
7163;DHT22;3623;47.098;15.446;2023-04-23T03:21:48;8.80;99.90
7163;DHT22;3623;47.098;15.446;2023-04-23T03:24:17;8.80;99.90
7163;DHT22;3623;47.098;15.446;2023-04-23T03:26:44;8.80;99.90
7163;DHT22;3623;47.098;15.446;2023-04-23T03:29:11;8.80;99.90
7163;DHT22;3623;47.098;15.446;2023-04-23T03:31:38;8.80;99.90
7163;DHT22;3623;47.098;15.446;2023-04-23T03:34:05;8.80;99.90
7163;DHT22;3623;47.098;15.446;2023-04-23T03:36:32;8.70;99.90
7163;DHT22;3623;47.098;15.446;2023-04-23T03:38:59;8.70;99.90
7163;DHT22;3623;47.098;15.446;2023-04-23T03:41:28;8.60;99.90
7163;DHT22;3623;47.098;15.446;2023-04-23T03:43:55;8.60;99.90
7163;DHT22;3623;47.098;15.446;2023-04-23T03:46:22;8.60;99.90
7163;DHT22;3623;47.098;15.446;2023-04-23T03:48:49;8.50;99.90
7163;DHT22;3623;47.098;15.446;2023-04-23T03:51:16;8.50;99.90
7163;DHT22;3623;47.098;15.446;2023-04-23T03:53:43;8.50;99.90
7163;DHT22;3623;47.098;15.446;2023-04-23T03:56:10;8.50;99.90
7163;DHT22;3623;47.098;15.446;2023-04-23T03:58:39;7.80;99.90
7163;DHT22;3623;47.098;15.446;2023-04-23T04:01:06;8.50;99.90
7163;DHT22;3623;47.098;15.446;2023-04-23T04:03:33;8.50;99.90
7163;DHT22;3623;47.098;15.446;2023-04-23T04:06:01;8.50;99.90
7163;DHT22;3623;47.098;15.446;2023-04-23T04:08:28;8.50;99.90
7163;DHT22;3623;47.098;15.446;2023-04-23T04:10:55;8.50;99.90
7163;DHT22;3623;47.098;15.446;2023-04-23T04:13:22;8.50;99.90
7163;DHT22;3623;47.098;15.446;2023-04-23T04:15:50;8.40;99.90
7163;DHT22;3623;47.098;15.446;2023-04-23T04:18:18;8.40;99.90
7163;DHT22;3623;47.098;15.446;2023-04-23T04:20:45;8.40;99.90
7163;DHT22;3623;47.098;15.446;2023-04-23T04:23:12;8.40;99.90
7163;DHT22;3623;47.098;15.446;2023-04-23T04:25:39;8.40;99.90
7163;DHT22;3623;47.098;15.446;2023-04-23T04:28:06;8.40;99.90
7163;DHT22;3623;47.098;15.446;2023-04-23T04:30:34;8.50;99.90
7163;DHT22;3623;47.098;15.446;2023-04-23T04:33:02;8.50;99.90
7163;DHT22;3623;47.098;15.446;2023-04-23T04:35:29;8.50;99.90
7163;DHT22;3623;47.098;15.446;2023-04-23T04:37:56;8.50;99.90
7163;DHT22;3623;47.098;15.446;2023-04-23T04:40:25;8.50;99.90
7163;DHT22;3623;47.098;15.446;2023-04-23T04:42:53;8.60;99.90
7163;DHT22;3623;47.098;15.446;2023-04-23T04:45:22;8.60;99.90
7163;DHT22;3623;47.098;15.446;2023-04-23T04:47:50;8.70;99.90
7163;DHT22;3623;47.098;15.446;2023-04-23T04:50:18;8.70;99.90
7163;DHT22;3623;47.098;15.446;2023-04-23T04:52:45;8.80;99.90
7163;DHT22;3623;47.098;15.446;2023-04-23T04:55:13;8.80;99.90
7163;DHT22;3623;47.098;15.446;2023-04-23T04:57:40;8.30;99.90
7163;DHT22;3623;47.098;15.446;2023-04-23T05:00:22;8.90;99.90
7163;DHT22;3623;47.098;15.446;2023-04-23T05:02:51;9.00;99.90
7163;DHT22;3623;47.098;15.446;2023-04-23T05:05:21;9.00;99.90
7163;DHT22;3623;47.098;15.446;2023-04-23T05:07:48;9.10;99.90
7163;DHT22;3623;47.098;15.446;2023-04-23T05:10:15;9.20;99.90
7163;DHT22;3623;47.098;15.446;2023-04-23T05:12:43;9.30;99.90
7163;DHT22;3623;47.098;15.446;2023-04-23T05:15:11;9.40;99.90
7163;DHT22;3623;47.098;15.446;2023-04-23T05:17:39;9.50;99.90
7163;DHT22;3623;47.098;15.446;2023-04-23T05:20:07;9.60;99.90
7163;DHT22;3623;47.098;15.446;2023-04-23T05:22:37;9.70;99.90
7163;DHT22;3623;47.098;15.446;2023-04-23T05:25:05;9.80;99.90
7163;DHT22;3623;47.098;15.446;2023-04-23T05:27:32;9.80;99.90
7163;DHT22;3623;47.098;15.446;2023-04-23T05:30:00;9.80;99.90
7163;DHT22;3623;47.098;15.446;2023-04-23T05:32:27;9.90;99.90
7163;DHT22;3623;47.098;15.446;2023-04-23T05:34:54;9.90;99.90
7163;DHT22;3623;47.098;15.446;2023-04-23T05:37:22;9.90;99.90
7163;DHT22;3623;47.098;15.446;2023-04-23T05:39:50;10.00;99.90
7163;DHT22;3623;47.098;15.446;2023-04-23T05:42:17;10.00;99.90
7163;DHT22;3623;47.098;15.446;2023-04-23T05:44:44;10.10;99.90
7163;DHT22;3623;47.098;15.446;2023-04-23T05:47:12;10.20;99.90
7163;DHT22;3623;47.098;15.446;2023-04-23T05:49:40;10.30;99.90
7163;DHT22;3623;47.098;15.446;2023-04-23T05:52:09;10.30;99.90
7163;DHT22;3623;47.098;15.446;2023-04-23T05:54:36;10.90;99.90
7163;DHT22;3623;47.098;15.446;2023-04-23T05:57:04;10.40;99.90
7163;DHT22;3623;47.098;15.446;2023-04-23T05:59:32;10.40;99.90
7163;DHT22;3623;47.098;15.446;2023-04-23T06:01:59;10.40;99.90
7163;DHT22;3623;47.098;15.446;2023-04-23T06:04:26;10.50;99.90
7163;DHT22;3623;47.098;15.446;2023-04-23T06:06:53;10.50;99.90
7163;DHT22;3623;47.098;15.446;2023-04-23T06:09:21;10.50;99.90
7163;DHT22;3623;47.098;15.446;2023-04-23T06:11:50;10.60;99.90
7163;DHT22;3623;47.098;15.446;2023-04-23T06:14:18;10.80;99.90
7163;DHT22;3623;47.098;15.446;2023-04-23T06:16:45;11.00;99.90
7163;DHT22;3623;47.098;15.446;2023-04-23T06:19:12;11.10;99.90
7163;DHT22;3623;47.098;15.446;2023-04-23T06:21:40;11.30;99.90
7163;DHT22;3623;47.098;15.446;2023-04-23T06:24:07;11.50;99.90
7163;DHT22;3623;47.098;15.446;2023-04-23T06:26:34;11.80;99.90
7163;DHT22;3623;47.098;15.446;2023-04-23T06:29:01;12.50;99.90
7163;DHT22;3623;47.098;15.446;2023-04-23T06:31:29;13.20;99.90
7163;DHT22;3623;47.098;15.446;2023-04-23T06:33:56;13.70;99.90
7163;DHT22;3623;47.098;15.446;2023-04-23T06:36:23;14.20;99.90
7163;DHT22;3623;47.098;15.446;2023-04-23T06:38:51;14.50;99.90
7163;DHT22;3623;47.098;15.446;2023-04-23T06:41:22;14.80;99.90
7163;DHT22;3623;47.098;15.446;2023-04-23T06:43:49;14.80;99.90
7163;DHT22;3623;47.098;15.446;2023-04-23T06:46:16;14.50;99.90
7163;DHT22;3623;47.098;15.446;2023-04-23T06:48:44;14.30;99.90
7163;DHT22;3623;47.098;15.446;2023-04-23T06:51:11;14.70;99.90
7163;DHT22;3623;47.098;15.446;2023-04-23T06:53:38;15.00;99.90
7163;DHT22;3623;47.098;15.446;2023-04-23T06:56:06;15.90;99.90
7163;DHT22;3623;47.098;15.446;2023-04-23T06:58:33;16.20;99.90
7163;DHT22;3623;47.098;15.446;2023-04-23T07:01:01;16.40;99.90
7163;DHT22;3623;47.098;15.446;2023-04-23T07:03:28;16.00;99.90
7163;DHT22;3623;47.098;15.446;2023-04-23T07:05:57;16.10;99.90
7163;DHT22;3623;47.098;15.446;2023-04-23T07:08:24;16.20;99.90
7163;DHT22;3623;47.098;15.446;2023-04-23T07:10:51;16.50;99.90
7163;DHT22;3623;47.098;15.446;2023-04-23T07:13:19;16.30;99.90
7163;DHT22;3623;47.098;15.446;2023-04-23T07:15:46;15.80;99.90
7163;DHT22;3623;47.098;15.446;2023-04-23T07:18:13;15.60;99.90
7163;DHT22;3623;47.098;15.446;2023-04-23T07:20:40;15.40;99.90
7163;DHT22;3623;47.098;15.446;2023-04-23T07:23:09;15.50;99.90
7163;DHT22;3623;47.098;15.446;2023-04-23T07:25:36;15.30;99.90
7163;DHT22;3623;47.098;15.446;2023-04-23T07:28:03;15.30;99.90
7163;DHT22;3623;47.098;15.446;2023-04-23T07:30:31;15.40;99.90
7163;DHT22;3623;47.098;15.446;2023-04-23T07:32:58;15.50;99.90
7163;DHT22;3623;47.098;15.446;2023-04-23T07:35:25;15.50;99.90
7163;DHT22;3623;47.098;15.446;2023-04-23T07:37:52;15.50;99.90
7163;DHT22;3623;47.098;15.446;2023-04-23T07:40:24;15.80;99.90
7163;DHT22;3623;47.098;15.446;2023-04-23T07:42:51;16.00;99.90
7163;DHT22;3623;47.098;15.446;2023-04-23T07:45:18;16.20;99.90
7163;DHT22;3623;47.098;15.446;2023-04-23T07:47:46;16.40;99.90
7163;DHT22;3623;47.098;15.446;2023-04-23T07:50:13;16.40;99.90
7163;DHT22;3623;47.098;15.446;2023-04-23T07:52:40;16.20;99.90
7163;DHT22;3623;47.098;15.446;2023-04-23T07:55:08;16.00;99.90
7163;DHT22;3623;47.098;15.446;2023-04-23T07:57:36;16.00;99.90
7163;DHT22;3623;47.098;15.446;2023-04-23T08:00:04;16.00;99.90
7163;DHT22;3623;47.098;15.446;2023-04-23T08:02:34;16.00;99.90
7163;DHT22;3623;47.098;15.446;2023-04-23T08:05:01;16.10;99.90
7163;DHT22;3623;47.098;15.446;2023-04-23T08:07:28;16.00;99.90
7163;DHT22;3623;47.098;15.446;2023-04-23T08:09:55;16.20;99.90
7163;DHT22;3623;47.098;15.446;2023-04-23T08:12:27;16.40;99.90
7163;DHT22;3623;47.098;15.446;2023-04-23T08:14:56;16.40;99.90
7163;DHT22;3623;47.098;15.446;2023-04-23T08:17:25;16.30;99.90
7163;DHT22;3623;47.098;15.446;2023-04-23T08:19:52;16.50;99.90
7163;DHT22;3623;47.098;15.446;2023-04-23T08:22:21;16.70;99.90
7163;DHT22;3623;47.098;15.446;2023-04-23T08:24:48;16.70;99.90
7163;DHT22;3623;47.098;15.446;2023-04-23T08:27:15;17.00;99.90
7163;DHT22;3623;47.098;15.446;2023-04-23T08:29:42;17.10;99.90
7163;DHT22;3623;47.098;15.446;2023-04-23T08:32:11;17.30;99.90
7163;DHT22;3623;47.098;15.446;2023-04-23T08:34:39;17.30;99.90
7163;DHT22;3623;47.098;15.446;2023-04-23T08:37:06;17.30;99.90
7163;DHT22;3623;47.098;15.446;2023-04-23T08:39:33;17.10;99.90
7163;DHT22;3623;47.098;15.446;2023-04-23T08:42:09;17.30;99.90
7163;DHT22;3623;47.098;15.446;2023-04-23T08:44:40;17.30;99.90
7163;DHT22;3623;47.098;15.446;2023-04-23T08:47:11;16.80;99.90
7163;DHT22;3623;47.098;15.446;2023-04-23T08:49:44;16.90;99.90
7163;DHT22;3623;47.098;15.446;2023-04-23T08:52:15;16.80;99.90
7163;DHT22;3623;47.098;15.446;2023-04-23T08:54:47;16.80;99.90
7163;DHT22;3623;47.098;15.446;2023-04-23T08:57:15;17.00;99.90
7163;DHT22;3623;47.098;15.446;2023-04-23T08:59:44;17.10;99.90
7163;DHT22;3623;47.098;15.446;2023-04-23T09:02:13;17.40;99.90
7163;DHT22;3623;47.098;15.446;2023-04-23T09:04:41;17.40;99.90
7163;DHT22;3623;47.098;15.446;2023-04-23T09:07:10;17.50;99.90
7163;DHT22;3623;47.098;15.446;2023-04-23T09:09:38;17.70;99.90
7163;DHT22;3623;47.098;15.446;2023-04-23T09:12:07;17.60;99.90
7163;DHT22;3623;47.098;15.446;2023-04-23T09:14:34;17.70;99.90
7163;DHT22;3623;47.098;15.446;2023-04-23T09:17:02;17.60;99.90
7163;DHT22;3623;47.098;15.446;2023-04-23T09:19:31;17.80;99.90
7163;DHT22;3623;47.098;15.446;2023-04-23T09:21:58;18.10;99.90
7163;DHT22;3623;47.098;15.446;2023-04-23T09:24:26;18.20;99.90
7163;DHT22;3623;47.098;15.446;2023-04-23T09:26:57;18.30;99.90
7163;DHT22;3623;47.098;15.446;2023-04-23T09:29:24;18.30;99.90
7163;DHT22;3623;47.098;15.446;2023-04-23T09:31:53;18.50;99.90
7163;DHT22;3623;47.098;15.446;2023-04-23T09:34:34;18.60;99.90
7163;DHT22;3623;47.098;15.446;2023-04-23T09:37:01;18.40;99.90
7163;DHT22;3623;47.098;15.446;2023-04-23T09:39:29;18.40;99.90
7163;DHT22;3623;47.098;15.446;2023-04-23T09:42:02;18.30;99.90
7163;DHT22;3623;47.098;15.446;2023-04-23T09:44:31;18.30;99.90
7163;DHT22;3623;47.098;15.446;2023-04-23T09:47:05;18.60;99.90
7163;DHT22;3623;47.098;15.446;2023-04-23T09:49:45;18.70;99.90
7163;DHT22;3623;47.098;15.446;2023-04-23T09:52:13;19.10;99.90
7163;DHT22;3623;47.098;15.446;2023-04-23T09:54:40;18.90;99.90
7163;DHT22;3623;47.098;15.446;2023-04-23T09:57:08;18.90;99.90
7163;DHT22;3623;47.098;15.446;2023-04-23T09:59:36;19.10;99.90
7163;DHT22;3623;47.098;15.446;2023-04-23T10:02:06;19.50;99.90
7163;DHT22;3623;47.098;15.446;2023-04-23T10:04:34;19.40;99.90
7163;DHT22;3623;47.098;15.446;2023-04-23T10:07:04;19.60;99.90
7163;DHT22;3623;47.098;15.446;2023-04-23T10:09:33;19.60;99.90
7163;DHT22;3623;47.098;15.446;2023-04-23T10:12:01;19.90;99.90
7163;DHT22;3623;47.098;15.446;2023-04-23T10:14:29;20.20;99.90
7163;DHT22;3623;47.098;15.446;2023-04-23T10:16:58;20.30;99.90
7163;DHT22;3623;47.098;15.446;2023-04-23T10:19:26;20.30;99.90
7163;DHT22;3623;47.098;15.446;2023-04-23T10:21:55;20.30;99.90
7163;DHT22;3623;47.098;15.446;2023-04-23T10:24:28;20.50;99.90
7163;DHT22;3623;47.098;15.446;2023-04-23T10:26:58;20.70;99.90
7163;DHT22;3623;47.098;15.446;2023-04-23T10:29:28;21.00;99.90
7163;DHT22;3623;47.098;15.446;2023-04-23T10:32:00;21.60;99.90
7163;DHT22;3623;47.098;15.446;2023-04-23T10:34:28;21.90;99.40
7163;DHT22;3623;47.098;15.446;2023-04-23T10:36:56;22.20;99.30
7163;DHT22;3623;47.098;15.446;2023-04-23T10:39:27;22.70;97.30
7163;DHT22;3623;47.098;15.446;2023-04-23T10:41:56;22.90;96.00
7163;DHT22;3623;47.098;15.446;2023-04-23T10:44:32;23.20;97.60
7163;DHT22;3623;47.098;15.446;2023-04-23T10:46:59;23.70;96.00
7163;DHT22;3623;47.098;15.446;2023-04-23T10:49:29;24.40;98.70
7163;DHT22;3623;47.098;15.446;2023-04-23T10:52:01;23.80;94.20
7163;DHT22;3623;47.098;15.446;2023-04-23T10:54:30;23.60;93.50
7163;DHT22;3623;47.098;15.446;2023-04-23T10:56:59;24.30;92.50
7163;DHT22;3623;47.098;15.446;2023-04-23T10:59:28;23.70;90.50
7163;DHT22;3623;47.098;15.446;2023-04-23T11:01:56;24.20;90.30
7163;DHT22;3623;47.098;15.446;2023-04-23T11:04:27;23.90;91.10
7163;DHT22;3623;47.098;15.446;2023-04-23T11:06:57;23.80;91.50
7163;DHT22;3623;47.098;15.446;2023-04-23T11:09:36;23.90;91.70
7163;DHT22;3623;47.098;15.446;2023-04-23T11:12:07;23.30;90.30
7163;DHT22;3623;47.098;15.446;2023-04-23T11:14:42;23.00;93.20
7163;DHT22;3623;47.098;15.446;2023-04-23T11:17:12;23.20;90.90
7163;DHT22;3623;47.098;15.446;2023-04-23T11:19:41;23.50;91.30
7163;DHT22;3623;47.098;15.446;2023-04-23T11:22:13;23.10;90.60
7163;DHT22;3623;47.098;15.446;2023-04-23T11:24:43;23.00;90.20
7163;DHT22;3623;47.098;15.446;2023-04-23T11:27:13;22.90;91.10
7163;DHT22;3623;47.098;15.446;2023-04-23T11:29:42;22.90;91.10
7163;DHT22;3623;47.098;15.446;2023-04-23T11:32:10;22.80;92.10
7163;DHT22;3623;47.098;15.446;2023-04-23T11:34:39;22.70;87.10
7163;DHT22;3623;47.098;15.446;2023-04-23T11:37:08;22.30;91.50
7163;DHT22;3623;47.098;15.446;2023-04-23T11:39:36;22.20;91.90
7163;DHT22;3623;47.098;15.446;2023-04-23T11:42:10;22.20;90.80
7163;DHT22;3623;47.098;15.446;2023-04-23T11:44:38;22.50;92.20
7163;DHT22;3623;47.098;15.446;2023-04-23T11:47:06;22.90;93.00
7163;DHT22;3623;47.098;15.446;2023-04-23T11:49:35;23.10;92.40
7163;DHT22;3623;47.098;15.446;2023-04-23T11:52:04;23.60;91.60
7163;DHT22;3623;47.098;15.446;2023-04-23T11:54:31;23.70;91.20
7163;DHT22;3623;47.098;15.446;2023-04-23T11:56:59;23.80;90.80
7163;DHT22;3623;47.098;15.446;2023-04-23T11:59:29;23.60;91.80
7163;DHT22;3623;47.098;15.446;2023-04-23T12:01:58;23.60;91.70
7163;DHT22;3623;47.098;15.446;2023-04-23T12:04:27;23.40;89.00
7163;DHT22;3623;47.098;15.446;2023-04-23T12:06:55;23.80;90.30
7163;DHT22;3623;47.098;15.446;2023-04-23T12:09:24;24.20;89.40
7163;DHT22;3623;47.098;15.446;2023-04-23T12:11:59;24.50;88.70
7163;DHT22;3623;47.098;15.446;2023-04-23T12:14:29;24.90;90.90
7163;DHT22;3623;47.098;15.446;2023-04-23T12:17:08;25.50;90.40
7163;DHT22;3623;47.098;15.446;2023-04-23T12:19:35;25.40;88.30
7163;DHT22;3623;47.098;15.446;2023-04-23T12:22:03;25.50;87.80
7163;DHT22;3623;47.098;15.446;2023-04-23T12:24:45;25.70;87.00
7163;DHT22;3623;47.098;15.446;2023-04-23T12:27:13;25.50;88.90
7163;DHT22;3623;47.098;15.446;2023-04-23T12:29:44;25.10;85.60
7163;DHT22;3623;47.098;15.446;2023-04-23T12:32:14;24.80;87.20
7163;DHT22;3623;47.098;15.446;2023-04-23T12:34:50;24.10;87.00
7163;DHT22;3623;47.098;15.446;2023-04-23T12:37:23;24.30;88.30
7163;DHT22;3623;47.098;15.446;2023-04-23T12:39:50;24.90;86.50
7163;DHT22;3623;47.098;15.446;2023-04-23T12:42:20;25.10;84.40
7163;DHT22;3623;47.098;15.446;2023-04-23T12:45:12;24.20;86.90
7163;DHT22;3623;47.098;15.446;2023-04-23T12:47:39;24.60;87.20
7163;DHT22;3623;47.098;15.446;2023-04-23T12:50:10;24.40;87.50
7163;DHT22;3623;47.098;15.446;2023-04-23T12:52:37;24.80;89.00
7163;DHT22;3623;47.098;15.446;2023-04-23T12:55:05;25.40;90.00
7163;DHT22;3623;47.098;15.446;2023-04-23T12:57:32;25.50;86.20
7163;DHT22;3623;47.098;15.446;2023-04-23T12:59:59;25.80;87.30
7163;DHT22;3623;47.098;15.446;2023-04-23T13:02:31;26.10;87.50
7163;DHT22;3623;47.098;15.446;2023-04-23T13:04:58;26.30;87.30
7163;DHT22;3623;47.098;15.446;2023-04-23T13:07:28;26.20;85.00
7163;DHT22;3623;47.098;15.446;2023-04-23T13:09:56;26.50;85.50
7163;DHT22;3623;47.098;15.446;2023-04-23T13:12:24;25.80;83.00
7163;DHT22;3623;47.098;15.446;2023-04-23T13:14:51;26.40;84.70
7163;DHT22;3623;47.098;15.446;2023-04-23T13:17:18;26.30;83.10
7163;DHT22;3623;47.098;15.446;2023-04-23T13:19:47;26.90;83.00
7163;DHT22;3623;47.098;15.446;2023-04-23T13:22:14;26.00;82.30
7163;DHT22;3623;47.098;15.446;2023-04-23T13:24:41;25.90;84.40
7163;DHT22;3623;47.098;15.446;2023-04-23T13:27:08;25.80;84.70
7163;DHT22;3623;47.098;15.446;2023-04-23T13:29:35;25.90;84.20
7163;DHT22;3623;47.098;15.446;2023-04-23T13:32:04;26.00;84.10
7163;DHT22;3623;47.098;15.446;2023-04-23T13:34:32;25.40;83.00
7163;DHT22;3623;47.098;15.446;2023-04-23T13:37:02;24.90;86.40
7163;DHT22;3623;47.098;15.446;2023-04-23T13:39:30;24.10;85.20
7163;DHT22;3623;47.098;15.446;2023-04-23T13:41:57;24.20;85.80
7163;DHT22;3623;47.098;15.446;2023-04-23T13:44:25;24.30;86.60
7163;DHT22;3623;47.098;15.446;2023-04-23T13:46:52;24.70;85.30
7163;DHT22;3623;47.098;15.446;2023-04-23T13:49:21;24.90;85.40
7163;DHT22;3623;47.098;15.446;2023-04-23T13:51:52;24.60;86.80
7163;DHT22;3623;47.098;15.446;2023-04-23T13:54:24;24.30;85.10
7163;DHT22;3623;47.098;15.446;2023-04-23T13:56:55;24.50;88.50
7163;DHT22;3623;47.098;15.446;2023-04-23T13:59:25;24.80;83.90
7163;DHT22;3623;47.098;15.446;2023-04-23T14:01:55;25.10;83.50
7163;DHT22;3623;47.098;15.446;2023-04-23T14:04:31;24.80;86.90
7163;DHT22;3623;47.098;15.446;2023-04-23T14:06:58;24.40;85.40
7163;DHT22;3623;47.098;15.446;2023-04-23T14:09:31;23.70;87.20
7163;DHT22;3623;47.098;15.446;2023-04-23T14:11:58;23.60;87.30
7163;DHT22;3623;47.098;15.446;2023-04-23T14:14:26;23.30;87.90
7163;DHT22;3623;47.098;15.446;2023-04-23T14:16:53;22.80;87.40
7163;DHT22;3623;47.098;15.446;2023-04-23T14:19:21;22.70;90.10
7163;DHT22;3623;47.098;15.446;2023-04-23T14:21:48;22.60;90.30
7163;DHT22;3623;47.098;15.446;2023-04-23T14:24:17;22.60;88.60
7163;DHT22;3623;47.098;15.446;2023-04-23T14:26:49;22.80;88.30
7163;DHT22;3623;47.098;15.446;2023-04-23T14:29:23;23.30;90.30
7163;DHT22;3623;47.098;15.446;2023-04-23T14:31:54;23.70;90.30
7163;DHT22;3623;47.098;15.446;2023-04-23T14:34:21;23.30;91.10
7163;DHT22;3623;47.098;15.446;2023-04-23T14:36:49;22.90;91.20
7163;DHT22;3623;47.098;15.446;2023-04-23T14:39:17;22.80;91.40
7163;DHT22;3623;47.098;15.446;2023-04-23T14:41:44;23.00;90.90
7163;DHT22;3623;47.098;15.446;2023-04-23T14:44:13;23.20;91.40
7163;DHT22;3623;47.098;15.446;2023-04-23T14:46:40;23.30;91.30
7163;DHT22;3623;47.098;15.446;2023-04-23T14:49:07;23.10;90.30
7163;DHT22;3623;47.098;15.446;2023-04-23T14:51:34;23.10;91.10
7163;DHT22;3623;47.098;15.446;2023-04-23T14:54:02;23.00;90.80
7163;DHT22;3623;47.098;15.446;2023-04-23T14:56:29;22.80;91.00
7163;DHT22;3623;47.098;15.446;2023-04-23T14:58:56;22.60;91.90
7163;DHT22;3623;47.098;15.446;2023-04-23T15:01:25;22.10;92.30
7163;DHT22;3623;47.098;15.446;2023-04-23T15:03:53;22.00;92.50
7163;DHT22;3623;47.098;15.446;2023-04-23T15:06:20;21.50;92.60
7163;DHT22;3623;47.098;15.446;2023-04-23T15:08:47;21.30;92.80
7163;DHT22;3623;47.098;15.446;2023-04-23T15:11:14;20.90;93.20
7163;DHT22;3623;47.098;15.446;2023-04-23T15:13:49;20.80;93.60
7163;DHT22;3623;47.098;15.446;2023-04-23T15:16:26;20.80;93.80
7163;DHT22;3623;47.098;15.446;2023-04-23T15:18:55;20.70;93.20
7163;DHT22;3623;47.098;15.446;2023-04-23T15:21:22;20.50;94.10
7163;DHT22;3623;47.098;15.446;2023-04-23T15:24:06;20.40;94.40
7163;DHT22;3623;47.098;15.446;2023-04-23T15:26:33;20.10;94.80
7163;DHT22;3623;47.098;15.446;2023-04-23T15:29:01;20.00;94.90
7163;DHT22;3623;47.098;15.446;2023-04-23T15:31:30;19.90;95.40
7163;DHT22;3623;47.098;15.446;2023-04-23T15:33:57;19.70;95.20
7163;DHT22;3623;47.098;15.446;2023-04-23T15:36:24;19.60;96.00
7163;DHT22;3623;47.098;15.446;2023-04-23T15:38:51;19.60;95.40
7163;DHT22;3623;47.098;15.446;2023-04-23T15:41:18;19.50;95.50
7163;DHT22;3623;47.098;15.446;2023-04-23T15:43:45;19.40;95.60
7163;DHT22;3623;47.098;15.446;2023-04-23T15:46:14;19.30;95.70
7163;DHT22;3623;47.098;15.446;2023-04-23T15:48:43;19.20;95.40
7163;DHT22;3623;47.098;15.446;2023-04-23T15:51:10;19.10;95.80
7163;DHT22;3623;47.098;15.446;2023-04-23T15:53:37;19.00;96.10
7163;DHT22;3623;47.098;15.446;2023-04-23T15:56:05;19.00;96.70
7163;DHT22;3623;47.098;15.446;2023-04-23T15:58:32;19.00;96.20